createdAt,value
2022-11-16T00:01:01.737Z,18.2
2022-11-16T00:06:01.732Z,17.6
2022-11-16T00:11:01.753Z,18.0
2022-11-16T00:16:02.719Z,17.5
2022-11-16T00:21:01.752Z,17.9
2022-11-16T00:26:01.720Z,17.0
2022-11-16T00:31:01.721Z,17.2
2022-11-16T00:36:01.910Z,17.4
2022-11-16T00:41:01.770Z,16.8
2022-11-16T00:46:01.764Z,15.7
2022-11-16T00:51:01.740Z,15.9
2022-11-16T00:56:01.875Z,15.3
2022-11-16T01:01:01.944Z,14.4
2022-11-16T01:06:01.829Z,14.9
2022-11-16T01:11:01.713Z,14.9
2022-11-16T01:16:01.868Z,14.5
2022-11-16T01:21:04.868Z,14.5
2022-11-16T01:26:01.724Z,14.9
2022-11-16T01:31:01.714Z,14.6
2022-11-16T01:36:01.790Z,14.4
2022-11-16T01:41:01.808Z,14.1
2022-11-16T01:46:01.722Z,13.9
2022-11-16T01:51:01.828Z,13.5
2022-11-16T01:56:01.735Z,13.3
2022-11-16T02:01:01.973Z,12.7
2022-11-16T02:06:01.760Z,12.7
2022-11-16T02:11:01.724Z,12.5
2022-11-16T02:16:01.848Z,12.6
2022-11-16T02:21:01.705Z,12.6
2022-11-16T02:26:01.691Z,13.2
2022-11-16T02:31:01.645Z,13.3
2022-11-16T02:36:01.600Z,14.0
2022-11-16T02:41:01.538Z,13.8
2022-11-16T02:46:01.193Z,13.2
2022-11-16T02:51:01.471Z,13.1
2022-11-16T02:56:01.648Z,13.3
2022-11-16T03:01:02.009Z,13.2
2022-11-16T03:06:01.723Z,14.0
2022-11-16T03:11:01.679Z,15.0
2022-11-16T03:16:01.299Z,15.5
2022-11-16T03:22:01.791Z,15.4
2022-11-16T03:27:01.780Z,14.9
2022-11-16T03:32:01.698Z,14.5
2022-11-16T03:42:01.735Z,13.9
2022-11-16T03:47:01.786Z,13.6
2022-11-16T03:52:01.910Z,13.4
2022-11-16T03:57:01.811Z,13.5
2022-11-16T04:02:01.756Z,12.9
2022-11-16T04:07:02.051Z,13.2
2022-11-16T04:12:01.837Z,13.6
2022-11-16T04:17:01.828Z,13.7
2022-11-16T04:22:01.748Z,13.3
2022-11-16T04:27:01.753Z,13.5
2022-11-16T04:32:01.790Z,13.1
2022-11-16T04:37:01.785Z,12.6
2022-11-16T04:42:01.758Z,12.2
2022-11-16T04:47:01.748Z,11.9
2022-11-16T04:52:02.222Z,11.4
2022-11-16T04:57:01.796Z,11.0
2022-11-16T05:02:01.735Z,10.3
2022-11-16T05:07:02.573Z,10.7
2022-11-16T05:12:01.821Z,10.0
2022-11-16T05:17:01.737Z,10.1
2022-11-16T05:22:01.750Z,9.9
2022-11-16T05:27:01.729Z,10.3
2022-11-16T05:32:01.912Z,9.8
2022-11-16T05:37:01.793Z,10.4
2022-11-16T05:42:01.896Z,10.6
2022-11-16T05:47:01.461Z,11.2
2022-11-16T05:52:02.431Z,12.5
2022-11-16T05:58:02.025Z,12.8
2022-11-16T06:03:02.099Z,16.1
2022-11-16T06:08:02.142Z,18.6
2022-11-16T06:13:01.821Z,19.0
2022-11-16T06:18:04.846Z,18.2
2022-11-16T06:23:02.017Z,19.1
2022-11-16T06:28:08.638Z,17.0
2022-11-16T06:33:01.944Z,14.8
2022-11-16T06:38:02.636Z,13.8
2022-11-16T06:48:02.235Z,11.9
2022-11-16T06:53:01.949Z,10.6
2022-11-16T06:58:02.448Z,9.9
2022-11-16T07:03:01.833Z,10.0
2022-11-16T07:08:01.738Z,9.8
2022-11-16T07:13:01.722Z,10.3
2022-11-16T07:18:02.513Z,10.2
2022-11-16T07:23:01.712Z,10.5
2022-11-16T07:28:01.917Z,10.6
2022-11-16T07:33:01.753Z,10.6
2022-11-16T07:38:01.945Z,10.4
2022-11-16T07:43:01.700Z,10.1
2022-11-16T07:48:01.794Z,9.8
2022-11-16T07:53:01.727Z,9.7
2022-11-16T07:58:02.166Z,9.6
2022-11-16T08:03:01.997Z,10.0
2022-11-16T08:08:01.751Z,10.6
2022-11-16T08:13:01.793Z,10.9
2022-11-16T08:18:01.963Z,10.6
2022-11-16T08:23:01.736Z,10.8
2022-11-16T08:28:01.719Z,10.5
2022-11-16T08:33:01.745Z,10.6
2022-11-16T08:38:01.918Z,10.4
2022-11-16T08:43:02.786Z,10.3
2022-11-16T08:48:04.733Z,10.1
2022-11-16T08:54:02.420Z,10.1
2022-11-16T08:59:01.727Z,9.8
2022-11-16T09:04:01.421Z,9.9
2022-11-16T09:09:01.808Z,10.1
2022-11-16T09:14:01.998Z,10.3
2022-11-16T09:19:02.538Z,10.2
2022-11-16T09:24:01.787Z,10.5
2022-11-16T09:29:02.955Z,10.1
2022-11-16T09:34:02.070Z,10.3
2022-11-16T09:49:01.706Z,10.0
2022-11-16T09:54:02.174Z,10.3
2022-11-16T10:00:08.787Z,9.9
2022-11-16T10:05:01.717Z,10.2
2022-11-16T10:10:02.075Z,10.4
2022-11-16T10:15:17.400Z,10.5
2022-11-16T10:20:01.712Z,10.3
2022-11-16T10:25:01.589Z,10.5
2022-11-16T10:30:12.301Z,9.2
2022-11-16T10:35:06.750Z,9.1
2022-11-16T10:40:01.512Z,8.3
2022-11-16T10:45:05.581Z,7.9
2022-11-16T10:50:01.385Z,7.7
2022-11-16T10:55:02.536Z,8.3
2022-11-16T11:00:02.738Z,7.9
2022-11-16T11:05:01.437Z,8.4
2022-11-16T11:10:01.980Z,9.0
2022-11-16T11:15:05.749Z,9.4
2022-11-16T11:20:01.740Z,9.1
2022-11-16T11:25:01.758Z,9.6
2022-11-16T11:30:03.105Z,9.4
2022-11-16T11:35:01.659Z,9.0
2022-11-16T11:40:01.800Z,8.7
2022-11-16T11:45:05.022Z,8.8
2022-11-16T11:50:01.887Z,8.5
2022-11-16T11:55:01.793Z,8.5
2022-11-16T12:00:02.981Z,8.4
2022-11-16T12:05:01.962Z,7.8
2022-11-16T12:10:01.788Z,7.4
2022-11-16T12:15:18.076Z,7.1
2022-11-16T12:25:01.760Z,6.8
2022-11-16T12:30:17.033Z,6.9
2022-11-16T12:35:01.721Z,7.2
2022-11-16T12:45:18.161Z,7.3
2022-11-16T13:15:03.608Z,3.8
2022-11-16T13:20:01.793Z,5.4
2022-11-16T13:26:01.710Z,5.7
2022-11-16T13:31:01.763Z,6.1
2022-11-16T13:36:17.609Z,6.1
2022-11-16T13:41:01.737Z,6.6
2022-11-16T13:46:01.717Z,6.4
2022-11-16T13:51:01.955Z,6.6
2022-11-16T13:56:42.809Z,6.8
2022-11-16T14:01:02.003Z,7.2
2022-11-16T14:06:01.596Z,7.6
2022-11-16T14:11:01.892Z,7.6
2022-11-16T14:16:01.738Z,7.6
2022-11-16T14:21:01.712Z,7.9
2022-11-16T14:26:16.407Z,8.0
2022-11-16T14:31:01.722Z,8.1
2022-11-16T14:36:01.723Z,9.0
2022-11-16T14:41:03.695Z,9.2
2022-11-16T14:46:02.057Z,11.1
2022-11-16T14:51:01.817Z,13.8
2022-11-16T14:56:01.823Z,16.1
2022-11-16T15:01:01.789Z,19.1
2022-11-16T15:06:03.541Z,22.8
2022-11-16T15:11:01.742Z,24.2
2022-11-16T15:16:01.788Z,25.6
2022-11-16T15:21:01.859Z,27.1
2022-11-16T15:26:02.042Z,27.7
2022-11-16T15:31:01.779Z,28.8
2022-11-16T15:36:17.050Z,29.7
2022-11-16T15:41:02.221Z,30.0
2022-11-16T15:46:01.923Z,30.8
2022-11-16T15:51:05.419Z,31.2
2022-11-16T15:56:01.897Z,31.0
2022-11-16T16:01:02.648Z,31.1
2022-11-16T16:06:01.889Z,31.2
2022-11-16T16:11:01.730Z,31.4
2022-11-16T16:16:01.646Z,31.1
2022-11-16T16:21:01.676Z,31.1
2022-11-16T16:26:01.995Z,31.4
2022-11-16T16:31:11.408Z,31.0
2022-11-16T16:36:01.665Z,30.8
2022-11-16T16:41:01.654Z,30.9
2022-11-16T16:46:01.881Z,30.7
2022-11-16T16:51:02.511Z,29.8
2022-11-16T17:01:03.875Z,29.5
2022-11-16T17:06:02.404Z,29.1
2022-11-16T17:11:01.817Z,28.7
2022-11-16T17:16:01.738Z,28.9
2022-11-16T17:21:02.311Z,27.9
2022-11-16T17:26:02.079Z,28.4
2022-11-16T17:31:01.729Z,28.8
2022-11-16T17:36:01.750Z,28.8
2022-11-16T17:41:01.729Z,28.6
2022-11-16T17:46:01.936Z,29.2
2022-11-16T17:51:01.848Z,29.0
2022-11-16T17:56:01.777Z,28.5
2022-11-16T18:01:02.303Z,28.3
2022-11-16T18:06:01.945Z,28.3
2022-11-16T18:11:01.764Z,27.9
2022-11-16T18:16:01.704Z,27.2
2022-11-16T18:21:01.818Z,26.2
2022-11-16T18:26:02.020Z,25.4
2022-11-16T18:31:01.626Z,23.5
2022-11-16T18:36:01.781Z,21.8
2022-11-16T18:42:02.095Z,17.2
2022-11-16T18:47:01.753Z,15.3
2022-11-16T18:52:03.087Z,12.4
2022-11-16T18:57:01.717Z,10.9
2022-11-16T19:02:02.030Z,9.4
2022-11-16T19:07:02.067Z,10.6
2022-11-16T19:12:01.750Z,9.9
2022-11-16T19:17:01.693Z,10.0
2022-11-16T19:27:01.975Z,8.3
2022-11-16T19:32:01.842Z,8.4
2022-11-16T19:37:01.785Z,7.9
2022-11-16T19:42:02.464Z,7.6
2022-11-16T19:47:02.094Z,7.6
2022-11-16T19:52:01.724Z,8.0
2022-11-16T19:57:01.748Z,7.7
2022-11-16T20:02:01.728Z,7.9
2022-11-16T20:07:02.169Z,7.7
2022-11-16T20:12:01.751Z,7.9
2022-11-16T20:22:01.759Z,7.2
2022-11-16T20:27:01.933Z,7.0
2022-11-16T20:32:01.804Z,7.3
2022-11-16T20:37:01.934Z,7.0
2022-11-16T20:42:01.777Z,6.9
2022-11-16T20:47:01.801Z,7.4
2022-11-16T20:52:01.772Z,7.4
2022-11-16T20:57:01.818Z,7.0
2022-11-16T21:02:01.726Z,6.4
2022-11-16T21:07:02.798Z,6.6
2022-11-16T21:12:01.720Z,6.4
2022-11-16T21:17:01.720Z,6.7
2022-11-16T21:22:02.734Z,6.9
2022-11-16T21:27:02.063Z,7.1
2022-11-16T21:32:01.813Z,7.1
2022-11-16T21:37:01.737Z,7.0
2022-11-16T21:42:01.797Z,6.7
2022-11-16T21:47:01.909Z,6.5
2022-11-16T21:52:01.738Z,6.7
2022-11-16T21:57:01.656Z,6.7
2022-11-16T22:03:02.079Z,6.4
2022-11-16T22:08:01.803Z,6.2
2022-11-16T22:13:01.783Z,6.2
2022-11-16T22:18:07.252Z,6.0
2022-11-16T22:23:02.048Z,5.7
2022-11-16T22:45:03.347Z,7.4
2022-11-16T22:50:02.052Z,6.7
2022-11-16T22:55:01.807Z,7.4
2022-11-16T23:06:02.957Z,7.3
2022-11-16T23:11:01.793Z,7.0
2022-11-16T23:16:01.787Z,7.0
2022-11-16T23:21:02.033Z,6.7
2022-11-16T23:26:02.071Z,6.3
2022-11-16T23:31:01.759Z,6.6
2022-11-16T23:36:01.773Z,6.8
2022-11-16T23:41:01.773Z,6.8
2022-11-16T23:46:02.152Z,6.6
2022-11-16T23:51:01.806Z,6.8
2022-11-16T23:56:06.585Z,6.4
